Time;durP1;ratioP1;P1;durP2;ratioP2;P2;SDS_P1;SDS_P2;PMS_P1;PMS_P2;Temp;Humidity;BMP_temperature;BMP_pressure;BME280_temperature;BME280_humidity;BME280_pressure;Samples;Min_cycle;Max_cycle;Signal;HPM_P1;HPM_P2
2024/01/28 00:00:37;;;;;;;18.75;8.45;;;4.20;23.10;;;2.59;100.00;102260.81;4937064;28;20560;-79
2024/01/28 00:03:05;;;;;;;13.45;8.02;;;4.70;99.90;;;2.73;100.00;102274.34;4944627;28;20429;-79
2024/01/28 00:05:32;;;;;;;12.13;7.18;;;4.10;1.00;;;2.77;100.00;102281.47;4949374;28;20075;-79
2024/01/28 00:08:00;;;;;;;11.95;6.82;;;4.20;99.90;;;2.73;100.00;102278.69;4972994;28;20388;-79
2024/01/28 00:10:27;;;;;;;11.40;6.68;;;4.10;99.90;;;2.66;100.00;102256.75;4932764;28;20126;-79
2024/01/28 00:12:54;;;;;;;12.25;6.57;;;4.10;99.90;;;2.75;100.00;102271.81;4947141;28;20419;-79
2024/01/28 00:15:22;;;;;;;10.13;6.03;;;4.10;98.80;;;2.64;100.00;102250.63;4957477;28;20510;-78
2024/01/28 00:17:53;;;;;;;10.38;6.10;;;4.10;99.90;;;2.73;100.00;102263.94;4964352;28;20047;-79
2024/01/28 00:20:20;;;;;;;11.25;5.70;;;4.10;99.90;;;2.35;100.00;102206.19;4965229;28;20473;-79
2024/01/28 00:22:48;;;;;;;13.75;6.63;;;4.10;99.90;;;2.62;100.00;102257.47;4960199;28;20051;-79
2024/01/28 00:25:16;;;;;;;9.07;6.10;;;4.10;36.20;;;2.45;100.00;102233.41;4933888;28;20522;-79
2024/01/28 00:27:44;;;;;;;8.40;5.93;;;4.00;1.00;;;2.52;100.00;102244.09;4957526;28;20121;-79
2024/01/28 00:30:12;;;;;;;16.17;7.15;;;4.00;99.90;;;2.53;100.00;102245.88;4950882;28;20130;-79
2024/01/28 00:32:41;;;;;;;10.02;6.18;;;3.90;99.90;;;2.47;100.00;102240.44;4947121;28;20047;-79
2024/01/28 00:35:08;;;;;;;12.73;6.15;;;4.00;99.90;;;2.38;100.00;102229.69;4951719;28;20130;-79
2024/01/28 00:37:36;;;;;;;10.50;5.65;;;3.90;98.80;;;2.46;100.00;102236.06;4965986;28;20146;-79
2024/01/28 00:40:04;;;;;;;11.13;7.15;;;3.90;99.90;;;2.44;100.00;102239.44;4969587;28;20436;-79
2024/01/28 00:42:31;;;;;;;11.00;6.18;;;3.80;1.00;;;2.44;100.00;102239.44;4949333;28;20043;-79
2024/01/28 00:44:58;;;;;;;9.55;6.47;;;3.90;1.00;;;2.35;100.00;102234.75;4943225;28;20466;-78
2024/01/28 00:47:25;;;;;;;12.48;6.53;;;3.90;1.00;;;2.31;100.00;102232.88;4943667;28;20047;-79
2024/01/28 00:49:52;;;;;;;12.90;6.30;;;3.80;99.90;;;2.35;100.00;102242.53;4953033;28;20035;-79
2024/01/28 00:52:19;;;;;;;10.02;6.53;;;3.70;99.70;;;1.88;100.00;102206.91;4928887;29;20039;-79
2024/01/28 00:54:46;;;;;;;7.10;5.82;;;3.60;99.90;;;1.80;100.00;102210.91;4935188;28;20055;-79
2024/01/28 00:57:16;;;;;;;11.27;6.25;;;4.40;99.90;;;1.98;100.00;102228.94;4928419;28;20054;-79
2024/01/28 00:59:43;;;;;;;;;;;3.50;99.90;;;1.77;100.00;102221.13;4956585;28;20063;-79
2024/01/28 01:02:13;;;;;;;12.80;6.25;;;3.50;1.00;;;1.78;100.00;102216.03;4942680;28;19927;-79
2024/01/28 01:04:41;;;;;;;13.07;6.90;;;3.70;99.90;;;1.94;100.00;102234.84;4938325;28;20154;-78
2024/01/28 01:07:08;;;;;;;10.40;6.20;;;4.30;1.00;;;1.88;100.00;102237.19;4969341;28;20047;-78
2024/01/28 01:09:35;;;;;;;11.27;6.22;;;3.40;99.90;;;1.79;100.00;102232.47;4934095;28;20062;-79
2024/01/28 01:12:04;;;;;;;12.35;6.47;;;3.30;34.20;;;1.62;100.00;102227.44;4950886;28;20498;-79
2024/01/28 01:14:37;;;;;;;11.45;6.22;;;3.20;99.90;;;1.30;100.00;102181.97;4952440;28;20051;-79
2024/01/28 01:17:05;;;;;;;15.38;7.75;;;3.10;76.80;;;1.51;100.00;102211.44;4958629;28;20036;-79
2024/01/28 01:19:32;;;;;;;14.05;6.50;;;3.20;99.90;;;1.59;100.00;102224.72;4912855;28;20119;-79
2024/01/28 01:22:01;;;;;;;9.57;5.78;;;3.20;1.00;;;1.48;100.00;102216.50;4956437;28;20089;-78
2024/01/28 01:24:31;;;;;;;11.02;6.45;;;3.20;1.00;;;1.24;100.00;102213.72;4940633;28;20047;-79
2024/01/28 01:26:58;;;;;;;9.82;6.03;;;3.00;99.90;;;1.17;100.00;102222.03;4944124;29;20058;-79
2024/01/28 01:29:26;;;;;;;10.85;7.68;;;2.90;99.90;;;1.16;100.00;102228.03;4929079;28;20054;-79
2024/01/28 01:31:54;;;;;;;10.80;5.60;;;2.80;99.90;;;1.18;100.00;102245.44;4929388;29;20098;-78
2024/01/28 01:34:22;;;;;;;11.57;6.53;;;4.80;1.00;;;1.16;100.00;102231.53;4944520;28;20111;-78
2024/01/28 01:36:49;;;;;;;9.32;5.70;;;2.70;62.70;;;1.17;100.00;102245.34;4939281;28;20049;-79
2024/01/28 01:39:19;;;;;;;10.52;6.40;;;2.70;7.40;;;1.10;100.00;102202.75;4955186;28;20163;-79
2024/01/28 01:41:46;;;;;;;13.15;6.35;;;2.80;99.90;;;1.02;100.00;102212.78;4964749;28;20129;-78
2024/01/28 01:44:14;;;;;;;9.90;5.13;;;2.60;99.90;;;0.84;100.00;102189.47;4970606;28;20038;-79
2024/01/28 01:46:42;;;;;;;11.90;6.07;;;2.60;1.00;;;0.96;100.00;102204.69;4950987;28;20031;-79
2024/01/28 01:49:10;;;;;;;8.10;5.57;;;2.60;99.90;;;0.98;100.00;102206.56;4934576;28;20040;-79
2024/01/28 01:51:41;;;;;;;10.32;5.95;;;2.60;99.90;;;0.91;100.00;102191.53;4964313;28;20114;-79
2024/01/28 01:54:09;;;;;;;9.45;5.88;;;2.60;99.90;;;0.84;100.00;102203.31;4964610;28;20046;-79
2024/01/28 01:56:37;;;;;;;14.90;5.85;;;2.40;64.50;;;0.67;100.00;102180.94;4949844;28;20052;-79
2024/01/28 01:59:05;;;;;;;15.18;8.43;;;2.50;56.00;;;0.77;100.00;102193.50;4943504;29;20046;-79
2024/01/28 02:01:34;;;;;;;11.40;6.18;;;2.40;1.00;;;0.77;100.00;102190.00;4975708;28;20063;-78
2024/01/28 02:04:01;;;;;;;10.93;5.38;;;2.40;79.90;;;0.70;100.00;102213.06;4956497;28;20050;-78
2024/01/28 02:06:29;;;;;;;10.77;6.38;;;2.40;1.00;;;0.58;100.00;102186.56;4955402;28;20051;-79
2024/01/28 02:08:56;;;;;;;10.45;6.38;;;2.30;99.90;;;0.75;100.00;102209.78;4954926;28;20514;-78
2024/01/28 02:11:23;;;;;;;8.32;5.88;;;2.30;1.00;;;0.60;100.00;102189.25;4963052;28;20105;-79
2024/01/28 02:13:50;;;;;;;10.60;5.57;;;2.30;1.00;;;0.59;100.00;102206.47;4935726;28;20525;-79
2024/01/28 02:16:17;;;;;;;8.13;5.28;;;2.20;99.90;;;0.52;100.00;102204.44;4958057;28;20125;-79
2024/01/28 02:18:44;;;;;;;12.20;5.97;;;2.20;1.00;;;0.39;100.00;102193.50;4938215;28;20491;-79
2024/01/28 02:21:12;;;;;;;8.02;5.68;;;2.20;99.90;;;0.34;100.00;102191.50;4963892;28;20135;-79
2024/01/28 02:23:39;;;;;;;9.48;5.97;;;2.00;53.60;;;0.07;100.00;102184.16;4968573;28;20061;-79
2024/01/28 02:26:06;;;;;;;7.82;5.72;;;1.90;1.00;;;-0.14;100.00;102161.63;4966999;28;20047;-78
2024/01/28 02:28:33;;;;;;;11.00;6.10;;;1.70;1.00;;;-0.20;100.00;102159.63;4951525;28;20055;-78
2024/01/28 02:31:00;;;;;;;8.27;5.45;;;1.70;99.90;;;-0.04;100.00;102176.78;4968075;28;20047;-78
2024/01/28 02:33:27;;;;;;;14.10;6.32;;;3.30;99.90;;;-0.07;100.00;102166.28;4958866;28;20050;-78
2024/01/28 02:35:55;;;;;;;9.05;6.03;;;1.50;99.90;;;0.06;100.00;102156.50;4939850;28;20051;-79
2024/01/28 02:38:22;;;;;;;11.57;5.75;;;1.70;1.00;;;0.16;100.00;102175.94;4947878;29;20081;-78
2024/01/28 02:40:52;;;;;;;10.52;6.15;;;1.80;99.90;;;0.23;100.00;102167.69;4946911;28;20053;-78
2024/01/28 02:43:19;;;;;;;7.80;5.53;;;1.80;99.90;;;0.20;100.00;102168.41;4948040;29;20057;-79
2024/01/28 02:45:46;;;;;;;9.77;5.35;;;3.00;49.90;;;0.19;100.00;102158.88;4942684;28;20545;-78
2024/01/28 02:48:13;;;;;;;11.18;5.63;;;1.80;97.60;;;0.25;100.00;102172.13;4963672;28;20147;-78
2024/01/28 02:50:40;;;;;;;11.38;5.65;;;1.80;5.50;;;0.13;100.00;102154.28;4959660;28;20109;-78
2024/01/28 02:53:07;;;;;;;7.57;5.40;;;1.80;1.00;;;-0.23;100.00;102105.13;4956507;28;20038;-78
2024/01/28 02:55:36;;;;;;;10.70;6.20;;;1.70;98.20;;;0.03;100.00;102140.84;4946761;28;20807;-79
2024/01/28 02:58:03;;;;;;;6.45;4.90;;;0.40;16.50;;;0.21;100.00;102156.38;4954358;28;20054;-78
2024/01/28 03:00:30;;;;;;;10.45;5.05;;;1.90;99.90;;;0.17;100.00;102138.94;4947086;28;20054;-78
2024/01/28 03:02:58;;;;;;;12.50;6.50;;;1.80;99.90;;;0.29;100.00;102162.78;4954586;28;20502;-79
2024/01/28 03:05:25;;;;;;;9.55;6.05;;;1.90;97.10;;;0.12;100.00;102136.97;4935928;28;20042;-79
2024/01/28 03:07:51;;;;;;;11.88;5.97;;;1.90;61.90;;;0.19;100.00;102173.53;4961640;28;20133;-79
2024/01/28 03:10:18;;;;;;;8.13;5.97;;;1.90;3.60;;;0.03;100.00;102148.59;4947017;28;20073;-78
2024/01/28 03:12:49;;;;;;;10.18;5.80;;;1.80;1.00;;;0.05;100.00;102159.91;4963348;28;20418;-79
2024/01/28 03:15:19;;;;;;;11.43;7.00;;;1.80;1.00;;;-0.17;100.00;102156.28;4946359;28;20150;-81
2024/01/28 03:17:46;;;;;;;;;;;1.50;99.90;;;-0.21;100.00;102164.72;4938177;28;20103;-79
2024/01/28 03:20:16;;;;;;;8.95;5.28;;;1.60;2.00;;;-0.47;100.00;102164.31;4954666;28;19929;-79
2024/01/28 03:22:43;;;;;;;10.30;5.53;;;1.50;28.40;;;-0.60;100.00;102166.25;4959599;28;20054;-78
2024/01/28 03:25:12;;;;;;;9.30;5.60;;;1.20;99.90;;;-0.63;100.00;102170.38;4954119;28;20051;-79
2024/01/28 03:27:39;;;;;;;12.30;7.38;;;1.10;89.40;;;-0.77;100.00;102157.66;4946151;28;20059;-79
2024/01/28 03:30:08;;;;;;;14.80;5.55;;;1.10;26.60;;;-0.74;100.00;102172.44;4960386;28;20653;-79
2024/01/28 03:32:35;;;;;;;10.43;5.90;;;1.10;4.10;;;-0.70;100.00;102178.66;4960740;28;20050;-79
2024/01/28 03:35:02;;;;;;;8.57;5.20;;;1.00;99.90;;;-0.71;100.00;102172.56;4956997;28;20137;-79
2024/01/28 03:37:29;;;;;;;12.07;6.15;;;1.00;1.00;;;-0.75;100.00;102170.66;4949132;28;20117;-79
2024/01/28 03:39:56;;;;;;;10.30;5.88;;;1.10;1.00;;;-0.75;100.00;102148.28;4941432;28;20053;-79
2024/01/28 03:42:24;;;;;;;11.38;5.82;;;1.10;1.00;;;-0.65;100.00;102183.25;4961617;28;20051;-79
2024/01/28 03:44:51;;;;;;;10.05;5.95;;;1.00;99.90;;;-0.61;100.00;102192.94;4962024;28;20039;-80
2024/01/28 03:47:19;;;;;;;10.57;5.60;;;1.30;1.00;;;-0.67;100.00;102176.22;4954192;29;20039;-79
2024/01/28 03:49:46;;;;;;;8.52;5.78;;;1.00;1.00;;;-0.50;100.00;102188.31;4966197;28;20078;-79
2024/01/28 03:52:13;;;;;;;10.68;5.38;;;1.30;48.20;;;-0.55;100.00;102168.19;4954440;28;20039;-79
2024/01/28 03:54:40;;;;;;;11.15;6.13;;;1.30;1.00;;;-0.38;100.00;102171.63;4966834;28;20102;-78
2024/01/28 03:57:07;;;;;;;10.15;5.93;;;1.30;99.90;;;-0.22;100.00;102194.00;4958134;29;20051;-78
2024/01/28 03:59:39;;;;;;;14.93;6.43;;;1.40;72.30;;;-0.22;100.00;102179.34;4963411;28;20054;-78
2024/01/28 04:02:07;;;;;;;10.27;6.07;;;1.30;61.40;;;-0.23;100.00;102168.94;4970049;28;20125;-79
2024/01/28 04:04:35;;;;;;;15.65;6.28;;;1.50;42.80;;;-0.13;100.00;102176.31;4959533;28;20046;-78
2024/01/28 04:07:02;;;;;;;10.70;5.57;;;1.50;99.90;;;0.04;100.00;102186.63;4981544;28;20050;-78
2024/01/28 04:09:29;;;;;;;11.25;6.57;;;1.60;99.90;;;-0.01;100.00;102174.34;4962909;28;20067;-78
2024/01/28 04:11:56;;;;;;;10.20;6.45;;;1.50;55.80;;;0.03;100.00;102172.81;4956205;29;20090;-78
2024/01/28 04:14:23;;;;;;;11.52;5.85;;;1.70;26.80;;;0.11;100.00;102178.34;4979122;28;20493;-78
2024/01/28 04:16:50;;;;;;;8.27;5.82;;;1.70;1.00;;;0.09;100.00;102160.16;4965770;28;20054;-79
2024/01/28 04:19:17;;;;;;;10.18;5.72;;;1.60;1.00;;;0.21;100.00;102171.91;4972448;28;20059;-78
2024/01/28 04:21:45;;;;;;;9.27;5.32;;;1.90;1.00;;;0.30;100.00;102171.47;4969814;28;20054;-78
2024/01/28 04:24:12;;;;;;;9.60;6.03;;;1.90;67.90;;;0.38;100.00;102180.44;4963292;28;20304;-78
2024/01/28 04:26:39;;;;;;;7.60;5.07;;;1.90;1.00;;;0.27;100.00;102157.56;4973908;28;20039;-79
2024/01/28 04:29:06;;;;;;;10.57;6.47;;;1.80;1.00;;;0.28;100.00;102154.16;4961991;28;20039;-78
2024/01/28 04:31:40;;;;;;;11.13;5.53;;;1.90;99.90;;;0.38;100.00;102164.91;4943465;28;20459;-78
2024/01/28 04:34:07;;;;;;;13.50;6.45;;;2.00;99.90;;;0.41;100.00;102175.44;4939204;29;20051;-81
2024/01/28 04:36:34;;;;;;;10.27;6.70;;;3.30;99.90;;;0.42;100.00;102170.31;4956603;28;20057;-78
2024/01/28 04:39:02;;;;;;;17.63;6.80;;;1.90;94.40;;;0.40;100.00;102174.53;4967167;28;20079;-78
2024/01/28 04:41:29;;;;;;;8.27;5.63;;;1.90;99.90;;;0.44;100.00;102173.00;4956013;28;20059;-79
2024/01/28 04:43:56;;;;;;;9.57;5.97;;;2.10;1.00;;;0.47;100.00;102170.53;4948087;28;20050;-78
2024/01/28 04:46:23;;;;;;;12.55;6.20;;;1.90;32.40;;;0.56;100.00;102183.03;4964619;28;20078;-76
2024/01/28 04:48:51;;;;;;;11.27;5.80;;;1.90;16.60;;;0.52;100.00;102163.00;4964089;28;20045;-77
2024/01/28 04:51:18;;;;;;;10.43;5.85;;;2.10;99.90;;;0.52;100.00;102163.84;4964678;28;20043;-76
2024/01/28 04:53:45;;;;;;;7.63;5.28;;;2.00;1.00;;;0.38;100.00;102134.75;4947339;28;20055;-76
2024/01/28 04:56:12;;;;;;;15.57;5.97;;;2.10;99.90;;;0.49;100.00;102157.66;4951252;28;20126;-78
2024/01/28 04:58:39;;;;;;;13.00;6.22;;;2.90;28.80;;;0.51;100.00;102150.84;4977927;28;20418;-76
2024/01/28 05:01:07;;;;;;;16.60;7.38;;;2.10;1.00;;;0.55;100.00;102161.44;4940464;28;20303;-78
2024/01/28 05:03:35;;;;;;;9.48;5.68;;;2.10;23.80;;;0.55;100.00;102164.03;4943511;28;20155;-77
2024/01/28 05:06:04;;;;;;;10.35;6.82;;;2.10;39.80;;;0.58;100.00;102167.56;4978139;28;20058;-77
2024/01/28 05:08:31;;;;;;;10.73;5.60;;;2.70;99.90;;;0.58;100.00;102180.53;4946809;28;20047;-77
2024/01/28 05:10:58;;;;;;;13.07;6.40;;;2.10;7.50;;;0.56;100.00;102172.66;4963776;28;20035;-77
2024/01/28 05:13:25;;;;;;;8.80;5.90;;;2.10;1.00;;;0.53;100.00;102180.31;4964087;28;20513;-77
2024/01/28 05:15:52;;;;;;;11.57;6.28;;;2.10;1.00;;;0.51;100.00;102156.91;4962683;28;20043;-76
2024/01/28 05:18:20;;;;;;;9.07;5.38;;;2.20;50.00;;;0.52;100.00;102158.69;4964897;28;20051;-77
2024/01/28 05:20:47;;;;;;;8.50;5.60;;;2.10;1.00;;;0.62;100.00;102172.06;4952285;28;20051;-77
2024/01/28 05:23:16;;;;;;;9.40;5.63;;;2.00;99.90;;;0.54;100.00;102170.00;4956779;28;20046;-77
2024/01/28 05:25:43;;;;;;;12.10;7.38;;;2.10;1.00;;;0.61;100.00;102170.28;4917453;28;20058;-78
2024/01/28 05:28:11;;;;;;;10.85;5.88;;;2.20;1.00;;;0.56;100.00;102157.13;4942358;29;20066;-77
2024/01/28 05:30:38;;;;;;;12.68;6.53;;;2.00;1.00;;;0.63;100.00;102163.47;4931333;28;20067;-77
2024/01/28 05:33:05;;;;;;;9.38;6.18;;;2.10;1.00;;;0.55;100.00;102145.00;4956152;28;20052;-78
2024/01/28 05:35:33;;;;;;;10.75;5.20;;;2.10;1.00;;;0.54;100.00;102145.81;4959810;28;20057;-78
2024/01/28 05:38:00;;;;;;;11.23;5.80;;;2.10;99.90;;;0.57;100.00;102148.53;4951197;28;20153;-77
2024/01/28 05:40:27;;;;;;;9.27;6.38;;;2.10;99.90;;;0.61;100.00;102150.44;4936730;29;20058;-78
2024/01/28 05:42:54;;;;;;;8.57;5.78;;;2.00;1.00;;;0.45;100.00;102148.88;4953145;28;20131;-77
2024/01/28 05:45:21;;;;;;;6.75;5.53;;;2.10;99.90;;;0.13;100.00;102141.34;4954717;29;20062;-77
2024/01/28 05:47:48;;;;;;;12.65;5.57;;;1.80;99.90;;;0.01;100.00;102145.06;4940615;28;20043;-78
2024/01/28 05:50:15;;;;;;;9.43;5.90;;;1.70;1.00;;;0.01;100.00;102158.00;4966417;28;20089;-77
2024/01/28 05:52:42;;;;;;;10.23;6.10;;;1.60;1.00;;;-0.30;100.00;102137.56;4956716;28;20124;-78
2024/01/28 05:55:09;;;;;;;10.25;5.65;;;1.60;1.00;;;-0.53;100.00;102126.09;4939282;29;20047;-77
2024/01/28 05:57:36;;;;;;;11.40;5.88;;;1.40;1.00;;;-0.41;100.00;102156.84;4962187;28;20046;-77
2024/01/28 06:00:03;;;;;;;11.95;6.20;;;1.40;99.90;;;-0.51;100.00;102136.53;4955934;28;20043;-77
2024/01/28 06:02:34;;;;;;;12.80;6.82;;;1.30;99.90;;;-0.45;100.00;102150.66;4954811;28;20063;-77
2024/01/28 06:05:02;;;;;;;10.98;5.78;;;1.10;31.40;;;-0.48;100.00;102154.78;4938984;29;20139;-77
2024/01/28 06:07:31;;;;;;;10.85;5.72;;;2.10;1.00;;;-0.54;100.00;102151.91;4954257;28;20035;-77
2024/01/28 06:09:58;;;;;;;12.48;6.18;;;3.30;1.00;;;-0.46;100.00;102151.47;4954314;28;20091;-77
2024/01/28 06:12:25;;;;;;;7.20;6.05;;;1.10;83.30;;;-0.60;100.00;102153.34;4954940;28;20111;-78
2024/01/28 06:14:52;;;;;;;9.80;5.32;;;1.20;1.00;;;-0.70;100.00;102151.13;4938317;28;20146;-78
2024/01/28 06:17:19;;;;;;;13.60;7.88;;;1.10;1.00;;;-0.72;100.00;102153.63;4954307;28;20133;-78
2024/01/28 06:19:46;;;;;;;12.45;7.63;;;0.90;1.00;;;-0.77;100.00;102155.09;4960476;28;20067;-78
2024/01/28 06:22:15;;;;;;;12.25;8.48;;;1.10;50.50;;;-0.88;100.00;102132.97;4958052;28;20529;-77
2024/01/28 06:24:42;;;;;;;14.80;7.32;;;0.90;99.90;;;-0.76;100.00;102154.28;4963587;28;20061;-78
2024/01/28 06:27:09;;;;;;;13.43;6.75;;;0.90;73.00;;;-0.91;100.00;102145.72;4969737;28;20434;-78
2024/01/28 06:29:36;;;;;;;11.23;6.85;;;0.80;1.00;;;-0.87;100.00;102156.28;4946276;28;20046;-78
2024/01/28 06:32:04;;;;;;;10.00;6.90;;;0.90;34.00;;;-0.86;100.00;102142.56;4970286;28;20220;-77
2024/01/28 06:34:31;;;;;;;8.23;6.15;;;0.80;99.90;;;-0.79;100.00;102155.81;4955235;28;20043;-78
2024/01/28 06:36:58;;;;;;;11.43;5.95;;;1.90;99.90;;;-0.95;100.00;102144.66;4966115;28;20058;-78
2024/01/28 06:39:25;;;;;;;9.63;5.90;;;1.10;1.00;;;-1.28;100.00;102136.94;4954589;28;20462;-77
2024/01/28 06:41:52;;;;;;;9.45;6.20;;;0.60;1.00;;;-1.09;100.00;102159.47;4955992;28;20474;-77
2024/01/28 06:44:19;;;;;;;12.75;7.15;;;0.60;99.90;;;-1.07;100.00;102155.25;4967596;28;20125;-78
2024/01/28 06:46:47;;;;;;;12.38;6.72;;;0.90;99.90;;;-1.06;100.00;102140.63;4952931;28;20039;-78
2024/01/28 06:49:14;;;;;;;13.75;8.65;;;0.70;99.90;;;-1.06;100.00;102151.88;4968346;28;20145;-78
2024/01/28 06:51:45;;;;;;;12.48;8.02;;;0.70;12.00;;;-1.30;100.00;102120.47;4965888;28;20054;-77
2024/01/28 06:54:18;;;;;;;13.15;6.97;;;0.50;99.90;;;-1.14;100.00;102147.97;4977621;28;20043;-77
2024/01/28 06:56:46;;;;;;;11.43;6.25;;;0.80;99.90;;;-1.13;100.00;102138.56;4969973;28;20490;-78
2024/01/28 06:59:12;;;;;;;10.98;7.43;;;0.40;99.90;;;-1.04;100.00;102134.75;4950970;28;20062;-78
2024/01/28 07:01:39;;;;;;;12.68;7.47;;;0.50;99.90;;;-0.89;100.00;102146.69;4943671;28;20066;-77
2024/01/28 07:04:09;;;;;;;8.95;6.97;;;0.60;99.90;;;-0.88;100.00;102145.88;4973993;28;20053;-77
2024/01/28 07:06:37;;;;;;;;;;;0.80;99.90;;;-1.06;100.00;102115.69;4961148;28;20039;-78
2024/01/28 07:09:04;;;;;;;10.57;6.95;;;0.90;99.90;;;-0.91;100.00;102133.69;4956394;28;19929;-78
2024/01/28 07:11:31;;;;;;;10.88;6.97;;;0.80;99.90;;;-0.79;100.00;102136.00;4960864;28;20079;-77
2024/01/28 07:13:58;;;;;;;10.80;6.78;;;0.70;99.90;;;-0.74;100.00;102142.31;4974126;28;20065;-78
2024/01/28 07:16:25;;;;;;;14.25;7.53;;;0.90;99.90;;;-0.72;100.00;102132.94;4949256;28;20063;-78
2024/01/28 07:18:52;;;;;;;8.82;6.55;;;0.90;99.90;;;-0.69;100.00;102128.72;4929044;28;20659;-78
2024/01/28 07:21:22;;;;;;;12.85;8.00;;;0.80;99.90;;;-0.72;100.00;102125.19;4959398;28;20043;-78
2024/01/28 07:23:50;;;;;;;12.10;6.35;;;1.10;99.90;;;-0.79;100.00;102128.25;4963039;28;20059;-78
2024/01/28 07:26:17;;;;;;;13.07;6.43;;;1.00;4.70;;;-0.73;100.00;102146.66;4973107;28;20604;-78
2024/01/28 07:28:44;;;;;;;10.50;6.65;;;0.80;1.00;;;-0.80;100.00;102139.38;4963910;28;20039;-78
2024/01/28 07:31:14;;;;;;;10.70;6.60;;;1.00;1.00;;;-0.81;100.00;102153.13;4963884;28;20062;-78
2024/01/28 07:33:44;;;;;;;11.02;7.65;;;0.70;16.90;;;-1.07;100.00;102124.25;4932777;28;20049;-78
2024/01/28 07:36:11;;;;;;;11.55;7.68;;;0.90;1.00;;;-1.05;100.00;102109.72;4956279;28;20525;-78
2024/01/28 07:38:38;;;;;;;17.25;7.07;;;1.40;99.90;;;-0.80;100.00;102131.63;4946502;28;20125;-78
2024/01/28 07:41:06;;;;;;;13.75;7.22;;;0.90;99.90;;;-0.72;100.00;102132.03;4972330;28;20457;-78
2024/01/28 07:43:32;;;;;;;16.15;7.35;;;0.90;99.90;;;-0.62;100.00;102131.69;4964276;28;20413;-78
2024/01/28 07:45:59;;;;;;;11.70;7.25;;;0.90;99.90;;;-0.72;100.00;102119.09;4972154;28;20054;-78
2024/01/28 07:48:27;;;;;;;13.48;7.45;;;1.00;99.90;;;-0.66;100.00;102123.69;4945482;29;20043;-78
2024/01/28 07:50:54;;;;;;;9.35;6.72;;;1.00;99.90;;;-0.62;100.00;102117.91;4972016;28;20049;-78
2024/01/28 07:53:21;;;;;;;9.15;7.25;;;1.00;99.90;;;-0.46;100.00;102147.97;4973627;28;20514;-78
2024/01/28 07:55:48;;;;;;;12.15;7.05;;;1.20;99.90;;;-0.57;100.00;102127.63;4959293;28;20043;-78
2024/01/28 07:58:16;;;;;;;10.70;7.05;;;1.00;99.90;;;-0.39;100.00;102141.41;4964857;28;20051;-78
2024/01/28 08:00:43;;;;;;;15.30;8.38;;;1.20;99.90;;;-0.41;100.00;102125.81;4965199;28;20135;-78
2024/01/28 08:03:10;;;;;;;13.90;9.63;;;1.30;99.90;;;-0.22;100.00;102147.44;4963226;28;20082;-78
2024/01/28 08:05:37;;;;;;;11.75;9.20;;;1.40;99.90;;;-0.34;100.00;102122.72;4958763;28;20046;-78
2024/01/28 08:08:04;;;;;;;15.73;9.18;;;1.30;99.90;;;-0.16;100.00;102140.84;4974064;28;20043;-78
2024/01/28 08:10:31;;;;;;;13.90;8.70;;;1.30;1.00;;;-0.04;100.00;102148.31;4948995;28;20054;-78
2024/01/28 08:12:58;;;;;;;15.77;9.98;;;1.50;99.90;;;-0.05;100.00;102140.47;4972827;28;20439;-78
2024/01/28 08:15:25;;;;;;;28.05;11.63;;;1.50;99.90;;;-0.01;100.00;102143.28;4964917;28;20042;-78
2024/01/28 08:17:52;;;;;;;13.73;9.43;;;1.60;1.00;;;0.01;100.00;102140.78;4948385;28;20077;-78
2024/01/28 08:20:19;;;;;;;14.90;10.90;;;1.60;99.90;;;0.03;100.00;102133.97;4948810;28;20095;-78
2024/01/28 08:22:46;;;;;;;14.02;9.77;;;1.80;1.00;;;0.15;100.00;102146.59;4950129;28;20074;-78
2024/01/28 08:25:14;;;;;;;16.85;10.88;;;1.70;99.90;;;0.20;100.00;102152.00;4959897;28;20082;-78
2024/01/28 08:27:41;;;;;;;15.00;10.23;;;1.80;99.90;;;0.10;100.00;102132.56;4959578;28;20456;-78
2024/01/28 08:30:09;;;;;;;14.52;10.25;;;1.80;99.90;;;0.17;100.00;102132.03;4955761;28;20051;-77
2024/01/28 08:32:37;;;;;;;17.98;9.05;;;1.80;1.00;;;0.23;100.00;102131.44;4955387;28;20137;-78
2024/01/28 08:35:04;;;;;;;16.05;9.70;;;1.80;1.00;;;0.38;100.00;102147.69;4947349;28;20834;-77
2024/01/28 08:37:31;;;;;;;18.85;11.18;;;1.90;1.00;;;0.30;100.00;102119.66;4960158;28;20071;-77
2024/01/28 08:39:58;;;;;;;17.40;11.20;;;1.80;1.00;;;0.30;100.00;102105.00;4952911;28;20039;-78
2024/01/28 08:42:25;;;;;;;17.73;9.88;;;2.00;1.00;;;0.39;100.00;102118.38;4966693;28;20062;-78
2024/01/28 08:44:57;;;;;;;20.25;10.57;;;1.90;1.00;;;0.54;100.00;102136.31;4947457;28;20533;-77
2024/01/28 08:47:24;;;;;;;16.05;10.13;;;2.10;1.00;;;0.53;100.00;102134.53;4966760;28;20075;-78
2024/01/28 08:49:51;;;;;;;19.85;10.82;;;2.00;1.00;;;0.65;100.00;102139.44;4946569;28;20062;-78
2024/01/28 08:52:20;;;;;;;17.42;11.10;;;2.20;1.00;;;0.74;100.00;102153.59;4945839;29;20125;-78
2024/01/28 08:54:47;;;;;;;14.73;9.63;;;2.20;1.00;;;0.78;100.00;102155.50;4953039;28;20043;-78
2024/01/28 08:57:14;;;;;;;16.58;10.50;;;2.40;1.00;;;0.86;100.00;102151.56;4937503;28;20508;-78
2024/01/28 08:59:41;;;;;;;11.85;8.43;;;2.40;1.00;;;0.89;100.00;102150.81;4942496;28;20055;-76
2024/01/28 09:02:09;;;;;;;17.90;9.52;;;2.40;1.00;;;0.85;100.00;102136.84;4965454;28;20090;-79
2024/01/28 09:04:36;;;;;;;18.30;9.77;;;2.50;1.00;;;1.03;100.00;102151.41;4933834;28;20073;-79
2024/01/28 09:07:03;;;;;;;14.73;9.20;;;2.50;1.00;;;1.01;100.00;102127.13;4955261;28;20049;-78
2024/01/28 09:09:30;;;;;;;13.77;9.40;;;2.60;1.00;;;1.18;100.00;102136.53;4941032;29;20044;-77
2024/01/28 09:11:58;;;;;;;18.15;9.82;;;2.70;1.00;;;1.23;100.00;102147.13;4933023;28;20046;-78
2024/01/28 09:14:26;;;;;;;16.92;9.40;;;3.80;1.00;;;1.24;100.00;102147.16;4946541;28;20043;-78
2024/01/28 09:16:53;;;;;;;18.38;9.63;;;3.90;1.00;;;1.29;100.00;102136.13;4953461;28;20069;-78
2024/01/28 09:19:20;;;;;;;21.42;10.32;;;2.70;1.00;;;1.38;100.00;102146.88;4939506;28;20137;-78
2024/01/28 09:21:49;;;;;;;14.18;9.55;;;2.90;1.00;;;1.50;100.00;102162.09;4925660;28;20048;-79
2024/01/28 09:24:19;;;;;;;16.42;9.68;;;3.60;1.00;;;1.46;100.00;102131.63;4930868;29;20149;-77
2024/01/28 09:26:48;;;;;;;17.55;11.38;;;3.10;1.00;;;1.65;100.00;102157.53;4949358;28;20075;-77
2024/01/28 09:29:18;;;;;;;19.40;8.98;;;3.10;1.00;;;1.72;100.00;102160.38;4953457;28;20047;-77
2024/01/28 09:31:45;;;;;;;15.88;9.07;;;3.20;99.90;;;1.75;100.00;102160.50;4961313;28;20121;-78
2024/01/28 09:34:13;;;;;;;18.80;10.50;;;3.20;1.00;;;1.85;100.00;102173.03;4959947;28;20065;-77
2024/01/28 09:36:40;;;;;;;16.20;9.63;;;3.20;1.00;;;1.80;100.00;102146.03;4959574;28;20129;-78
2024/01/28 09:39:09;;;;;;;13.05;8.45;;;4.60;99.90;;;1.92;100.00;102159.47;4957402;28;20097;-78
2024/01/28 09:41:54;;;;;;;13.30;9.25;;;4.50;99.90;;;2.06;100.00;102161.75;4956233;28;20092;-78
2024/01/28 09:44:21;;;;;;;16.38;9.07;;;3.50;99.90;;;2.12;100.00;102169.81;4974609;28;20047;-77
2024/01/28 09:46:49;;;;;;;12.40;9.10;;;3.50;99.90;;;2.15;100.00;102172.50;4970129;28;20081;-78
2024/01/28 09:49:21;;;;;;;12.32;8.60;;;3.60;99.90;;;2.18;100.00;102161.34;4983185;28;20137;-77
2024/01/28 09:51:51;;;;;;;13.00;8.48;;;3.70;99.90;;;2.20;100.00;102155.38;4970204;28;20053;-77
2024/01/28 09:54:19;;;;;;;13.63;8.90;;;3.70;99.90;;;2.34;100.00;102163.75;4961211;28;20039;-77
2024/01/28 09:56:49;;;;;;;15.27;10.13;;;3.80;99.90;;;2.39;100.00;102164.78;4946575;28;20117;-77
2024/01/28 09:59:16;;;;;;;18.17;9.90;;;3.80;99.90;;;2.36;100.00;102143.91;4968052;28;20102;-78
2024/01/28 10:01:44;;;;;;;16.15;9.38;;;4.80;99.90;;;2.45;100.00;102145.97;4950594;28;20051;-75
2024/01/28 10:04:15;;;;;;;13.48;9.10;;;4.00;99.90;;;2.58;100.00;102172.41;4971550;28;20051;-75
2024/01/28 10:06:46;;;;;;;12.10;9.15;;;4.00;99.90;;;2.60;100.00;102155.16;4940651;28;20451;-76
2024/01/28 10:09:17;;;;;;;12.98;9.52;;;4.10;99.90;;;2.74;100.00;102174.78;4958158;28;20047;-75
2024/01/28 10:11:45;;;;;;;13.10;8.73;;;4.10;99.90;;;2.76;100.00;102165.31;4966894;28;20086;-75
2024/01/28 10:14:12;;;;;;;14.63;9.38;;;4.20;99.90;;;2.67;100.00;102142.47;4950431;28;20171;-75
2024/01/28 10:16:39;;;;;;;16.95;9.57;;;4.20;99.90;;;2.91;100.00;102166.72;4974160;28;20113;-75